createdAt,value
2022-08-22T00:00:42.891Z,1.90
2022-08-22T00:02:52.479Z,5.00
2022-08-22T00:06:15.483Z,3.10
2022-08-22T00:11:40.438Z,1.50
2022-08-22T00:17:54.936Z,1.60
2022-08-22T00:24:29.222Z,2.00
2022-08-22T00:30:10.743Z,1.90
2022-08-22T00:36:16.572Z,1.90
2022-08-22T00:42:47.090Z,1.70
2022-08-22T00:49:31.170Z,3.80
2022-08-22T00:55:53.603Z,2.30
2022-08-22T01:02:34.533Z,2.30
2022-08-22T01:09:06.499Z,2.40
2022-08-22T01:15:10.770Z,2.00
2022-08-22T01:21:24.631Z,1.60
2022-08-22T01:27:35.964Z,1.50
2022-08-22T01:34:13.080Z,2.40
2022-08-22T01:40:53.567Z,4.10
2022-08-22T01:46:48.732Z,3.70
2022-08-22T01:52:12.658Z,3.50
2022-08-22T01:57:16.368Z,9.10
2022-08-22T02:03:25.819Z,5.50
2022-08-22T02:09:47.418Z,5.20
2022-08-22T02:15:48.143Z,5.50
2022-08-22T02:22:19.143Z,5.80
2022-08-22T02:29:07.207Z,6.30
2022-08-22T02:35:43.186Z,7.50
2022-08-22T02:41:39.810Z,7.60
2022-08-22T02:47:16.829Z,9.70
2022-08-22T02:52:46.602Z,10.20
2022-08-22T02:58:09.561Z,10.60
2022-08-22T03:03:45.451Z,7.70
2022-08-22T03:09:33.466Z,10.20
2022-08-22T03:15:30.837Z,11.10
2022-08-22T03:21:31.299Z,10.50
2022-08-22T03:28:10.217Z,13.40
2022-08-22T03:34:13.390Z,13.10
2022-08-22T03:40:11.009Z,14.10
2022-08-22T03:46:28.108Z,13.00
2022-08-22T03:59:11.366Z,11.20
2022-08-22T04:05:36.803Z,10.20
2022-08-22T04:12:28.522Z,8.60
2022-08-22T04:19:23.170Z,11.40
2022-08-22T04:25:47.585Z,11.20
2022-08-22T04:32:23.922Z,11.90
2022-08-22T04:38:50.009Z,12.00
2022-08-22T04:44:44.999Z,13.30
2022-08-22T04:50:38.006Z,15.00
2022-08-22T04:56:56.206Z,14.10
2022-08-22T05:02:29.856Z,14.50
2022-08-22T05:08:16.227Z,15.30
2022-08-22T05:13:53.882Z,14.20
2022-08-22T05:19:40.960Z,15.00
2022-08-22T05:25:12.311Z,15.70
2022-08-22T05:30:39.666Z,15.60
2022-08-22T05:35:57.873Z,19.20
2022-08-22T05:41:34.564Z,16.90
2022-08-22T05:47:21.607Z,17.80
2022-08-22T05:54:21.826Z,21.80
2022-08-22T06:00:36.971Z,17.90
2022-08-22T06:06:02.339Z,16.50
2022-08-22T06:12:21.608Z,17.70
2022-08-22T06:18:28.922Z,18.00
2022-08-22T06:24:44.610Z,17.40
2022-08-22T06:30:55.703Z,20.00
2022-08-22T06:37:11.676Z,17.80
2022-08-22T06:44:09.468Z,14.30
2022-08-22T06:49:46.658Z,18.50
2022-08-22T06:55:46.186Z,14.40
2022-08-22T07:02:10.693Z,12.40
2022-08-22T07:07:32.134Z,15.40
2022-08-22T07:13:19.045Z,11.40
2022-08-22T07:19:41.690Z,11.80
2022-08-22T07:26:08.968Z,12.50
2022-08-22T07:32:20.491Z,12.50
2022-08-22T07:38:35.461Z,11.50
2022-08-22T07:44:35.504Z,14.00
2022-08-22T07:50:27.765Z,14.30
2022-08-22T07:56:49.125Z,10.90
2022-08-22T08:02:24.295Z,14.50
2022-08-22T08:08:02.782Z,10.40
2022-08-22T08:13:40.110Z,13.70
2022-08-22T08:19:13.311Z,11.90
2022-08-22T08:25:13.656Z,13.90
2022-08-22T08:31:05.723Z,10.00
2022-08-22T08:37:29.540Z,13.20
2022-08-22T08:43:31.492Z,11.70
2022-08-22T08:49:21.050Z,11.90
2022-08-22T08:55:28.613Z,9.70
2022-08-22T09:01:45.176Z,8.70
2022-08-22T09:07:48.061Z,7.50
2022-08-22T09:13:53.663Z,7.90
2022-08-22T09:20:20.165Z,12.00
2022-08-22T09:26:08.907Z,7.30
2022-08-22T09:31:47.376Z,9.20
2022-08-22T09:37:17.147Z,12.20
2022-08-22T09:43:25.838Z,12.90
2022-08-22T09:49:19.382Z,16.00
2022-08-22T09:55:18.833Z,17.60
2022-08-22T10:02:43.570Z,19.60
2022-08-22T10:08:38.859Z,19.60
2022-08-22T10:14:50.487Z,22.30
2022-08-22T10:20:39.155Z,19.00
2022-08-22T10:26:38.746Z,21.80
2022-08-22T10:32:36.572Z,24.40
2022-08-22T10:38:05.890Z,26.10
2022-08-22T10:44:16.692Z,22.60
2022-08-22T10:49:45.080Z,26.60
2022-08-22T10:55:17.446Z,24.90
2022-08-22T11:01:38.236Z,24.20
2022-08-22T11:07:23.676Z,22.30
2022-08-22T11:12:44.597Z,25.50
2022-08-22T11:18:25.985Z,25.70
2022-08-22T11:24:34.677Z,26.10
2022-08-22T11:30:45.365Z,27.90
2022-08-22T11:37:11.573Z,26.30
2022-08-22T11:42:54.117Z,32.80
2022-08-22T11:49:02.470Z,27.80
2022-08-22T11:54:59.461Z,32.20
2022-08-22T12:01:05.851Z,29.20
2022-08-22T12:07:27.505Z,31.10
2022-08-22T12:13:49.726Z,32.40
2022-08-22T12:20:22.085Z,32.10
2022-08-22T12:27:07.837Z,30.80
2022-08-22T12:33:22.026Z,29.40
2022-08-22T12:39:27.848Z,31.20
2022-08-22T12:46:13.204Z,28.00
2022-08-22T12:52:32.337Z,32.00
2022-08-22T12:57:54.099Z,30.90
2022-08-22T13:03:23.577Z,30.50
2022-08-22T13:08:52.299Z,30.50
2022-08-22T13:14:30.704Z,30.70
2022-08-22T13:19:57.392Z,29.90
2022-08-22T13:25:49.556Z,25.40
2022-08-22T13:30:56.518Z,25.60
2022-08-22T13:36:21.889Z,24.40
2022-08-22T13:42:00.826Z,28.40
2022-08-22T13:47:27.654Z,32.50
2022-08-22T13:52:52.474Z,30.70
2022-08-22T13:59:01.205Z,35.20
2022-08-22T14:04:53.491Z,35.20
2022-08-22T14:10:19.255Z,36.70
2022-08-22T14:15:45.234Z,30.10
2022-08-22T14:21:11.366Z,33.00
2022-08-22T14:27:05.135Z,30.90
2022-08-22T14:32:46.436Z,30.30
2022-08-22T14:38:32.462Z,32.50
2022-08-22T14:44:28.265Z,34.90
2022-08-22T14:49:52.991Z,32.50
2022-08-22T14:55:27.177Z,27.00
2022-08-22T15:00:44.888Z,31.60
2022-08-22T15:06:48.589Z,30.30
2022-08-22T15:12:41.109Z,31.00
2022-08-22T15:17:55.108Z,28.10
2022-08-22T15:23:24.473Z,31.60
2022-08-22T15:28:53.342Z,30.30
2022-08-22T15:34:31.230Z,32.90
2022-08-22T15:40:25.263Z,32.80
2022-08-22T15:45:50.409Z,38.30
2022-08-22T15:51:52.513Z,38.70
2022-08-22T15:57:46.471Z,40.40
2022-08-22T16:03:33.904Z,40.50
2022-08-22T16:08:52.060Z,44.90
2022-08-22T16:15:06.899Z,51.50
2022-08-22T16:20:19.905Z,52.10
2022-08-22T16:25:52.866Z,54.00
2022-08-22T16:31:49.170Z,50.20
2022-08-22T16:37:53.109Z,58.90
2022-08-22T16:43:23.720Z,52.30
2022-08-22T16:49:00.487Z,59.80
2022-08-22T16:54:55.815Z,53.10
2022-08-22T17:00:50.424Z,59.00
2022-08-22T17:06:38.562Z,67.70
2022-08-22T17:12:26.026Z,63.30
2022-08-22T17:17:31.322Z,71.90
2022-08-22T17:22:44.797Z,62.90
2022-08-22T17:28:49.225Z,56.50
2022-08-22T17:34:59.629Z,68.20
2022-08-22T17:40:11.782Z,62.60
2022-08-22T17:45:56.256Z,63.60
2022-08-22T17:51:28.326Z,61.60
2022-08-22T17:57:05.936Z,67.50
2022-08-22T18:02:40.460Z,69.50
2022-08-22T18:14:45.409Z,73.90
2022-08-22T18:20:16.321Z,77.20
2022-08-22T18:25:42.127Z,63.30
2022-08-22T18:31:09.198Z,79.40
2022-08-22T18:36:51.563Z,77.10
2022-08-22T18:42:56.912Z,70.50
2022-08-22T18:48:19.199Z,72.50
2022-08-22T18:54:14.367Z,65.50
2022-08-22T19:00:26.800Z,71.30
2022-08-22T19:06:36.532Z,68.60
2022-08-22T19:12:51.465Z,59.00
2022-08-22T19:18:56.473Z,68.70
2022-08-22T19:24:39.456Z,60.10
2022-08-22T19:30:00.967Z,61.90
2022-08-22T19:36:18.452Z,60.30
2022-08-22T19:42:50.574Z,64.70
2022-08-22T19:48:29.113Z,66.00
2022-08-22T19:53:42.040Z,63.10
2022-08-22T19:59:38.959Z,58.10
2022-08-22T20:06:13.791Z,62.00
2022-08-22T20:12:02.813Z,61.20
2022-08-22T20:17:33.023Z,53.10
2022-08-22T20:23:29.818Z,56.80
2022-08-22T20:29:23.597Z,59.70
2022-08-22T20:35:38.957Z,60.30
2022-08-22T20:41:15.219Z,48.90
2022-08-22T20:46:53.774Z,47.30
2022-08-22T20:52:02.857Z,51.00
2022-08-22T20:57:16.733Z,45.70
2022-08-22T21:02:31.654Z,42.90
2022-08-22T21:07:44.601Z,52.40
2022-08-22T21:13:11.869Z,48.10
2022-08-22T21:18:39.797Z,47.70
2022-08-22T21:23:45.049Z,47.20
2022-08-22T21:29:03.680Z,48.80
2022-08-22T21:34:11.962Z,50.70
2022-08-22T21:39:54.615Z,41.40
2022-08-22T21:46:19.955Z,34.10
2022-08-22T21:51:41.910Z,17.50
2022-08-22T21:57:34.626Z,14.10
2022-08-22T22:03:07.383Z,9.90
2022-08-22T22:08:18.747Z,10.40
2022-08-22T22:14:00.607Z,11.90
2022-08-22T22:19:52.109Z,8.20
2022-08-22T22:25:40.075Z,8.60
2022-08-22T22:30:55.246Z,6.70
2022-08-22T22:36:37.953Z,7.60
2022-08-22T22:41:45.980Z,8.70
2022-08-22T22:47:06.620Z,7.30
2022-08-22T22:52:40.746Z,8.70
2022-08-22T22:58:40.664Z,7.70
2022-08-22T23:03:46.196Z,6.20
2022-08-22T23:09:38.013Z,8.80
2022-08-22T23:15:16.798Z,10.40
2022-08-22T23:20:40.172Z,8.30
2022-08-22T23:26:37.624Z,9.70
2022-08-22T23:32:16.347Z,8.90
2022-08-22T23:37:22.390Z,9.80
2022-08-22T23:42:50.506Z,10.30
2022-08-22T23:48:38.252Z,14.50
2022-08-22T23:54:16.399Z,16.30
